createdAt,value
2023-11-27T00:00:55.106Z,-1.05
2023-11-27T00:03:21.970Z,-1.04
2023-11-27T00:05:48.883Z,-1.09
2023-11-27T00:08:15.892Z,-1.09
2023-11-27T00:10:45.851Z,-1.03
2023-11-27T00:13:12.776Z,-1.04
2023-11-27T00:15:39.716Z,-1.04
2023-11-27T00:18:06.927Z,-1.05
2023-11-27T00:20:33.839Z,-1.08
2023-11-27T00:23:00.928Z,-1.06
2023-11-27T00:25:27.756Z,-1.09
2023-11-27T00:27:54.613Z,-1.11
2023-11-27T00:30:24.707Z,-1.09
2023-11-27T00:32:51.794Z,-1.08
2023-11-27T00:35:18.667Z,-1.06
2023-11-27T00:37:45.559Z,-1.12
2023-11-27T00:40:13.043Z,-1.13
2023-11-27T00:42:42.938Z,-1.11
2023-11-27T00:45:10.352Z,-1.09
2023-11-27T00:47:37.472Z,-1.09
2023-11-27T00:50:05.286Z,-1.11
2023-11-27T00:52:32.905Z,-1.06
2023-11-27T00:54:59.753Z,-1.11
2023-11-27T00:57:26.728Z,-1.10
2023-11-27T00:59:54.222Z,-1.13
2023-11-27T01:02:22.140Z,-1.13
2023-11-27T01:04:49.154Z,-1.09
2023-11-27T01:07:16.280Z,-1.10
2023-11-27T01:09:43.299Z,-1.04
2023-11-27T01:12:11.028Z,-1.00
2023-11-27T01:14:38.357Z,-1.03
2023-11-27T01:17:05.767Z,-1.03
2023-11-27T01:19:35.525Z,-1.04
2023-11-27T01:22:02.454Z,-1.02
2023-11-27T01:24:29.734Z,-1.03
2023-11-27T01:26:59.294Z,-1.02
2023-11-27T01:29:29.351Z,-0.99
2023-11-27T01:31:56.530Z,-1.04
2023-11-27T01:34:31.392Z,-1.08
2023-11-27T01:36:58.280Z,-1.08
2023-11-27T01:39:25.162Z,-1.09
2023-11-27T01:41:52.029Z,-1.08
2023-11-27T01:44:19.059Z,-1.12
2023-11-27T01:46:49.256Z,-1.10
2023-11-27T01:49:18.790Z,-1.12
2023-11-27T01:51:46.579Z,-1.13
2023-11-27T01:54:14.500Z,-1.19
2023-11-27T01:56:47.489Z,-1.21
2023-11-27T01:59:14.783Z,-1.24
2023-11-27T02:01:42.355Z,-1.26
2023-11-27T02:04:09.730Z,-1.30
2023-11-27T02:06:36.563Z,-1.30
2023-11-27T02:09:05.497Z,-1.32
2023-11-27T02:11:33.010Z,-1.37
2023-11-27T02:14:03.308Z,-1.40
2023-11-27T02:16:30.166Z,-1.49
2023-11-27T02:18:57.518Z,-1.55
2023-11-27T02:21:24.438Z,-1.56
2023-11-27T02:23:51.290Z,-1.60
2023-11-27T02:26:19.078Z,-1.71
2023-11-27T02:28:46.195Z,-1.73
2023-11-27T02:31:15.589Z,-1.72
2023-11-27T02:33:42.486Z,-1.75
2023-11-27T02:36:09.767Z,-1.80
2023-11-27T02:38:37.549Z,-1.75
2023-11-27T02:41:05.169Z,-1.77
2023-11-27T02:43:34.341Z,-1.81
2023-11-27T02:46:01.456Z,-1.83
2023-11-27T02:48:30.575Z,-1.83
2023-11-27T02:50:57.470Z,-1.89
2023-11-27T02:53:25.812Z,-1.84
2023-11-27T02:55:53.598Z,-1.83
2023-11-27T02:58:21.397Z,-1.83
2023-11-27T03:00:48.996Z,-1.88
2023-11-27T03:03:15.981Z,-1.95
2023-11-27T03:05:43.058Z,-2.05
2023-11-27T03:08:11.407Z,-2.07
2023-11-27T03:10:43.372Z,-2.06
2023-11-27T03:13:10.858Z,-2.11
2023-11-27T03:15:37.797Z,-2.13
2023-11-27T03:18:04.973Z,-2.15
2023-11-27T03:20:31.804Z,-2.12
2023-11-27T03:22:58.733Z,-2.08
2023-11-27T03:25:28.901Z,-2.07
2023-11-27T03:27:58.857Z,-2.14
2023-11-27T03:30:25.705Z,-2.13
2023-11-27T03:32:52.612Z,-2.11
2023-11-27T03:35:19.528Z,-2.07
2023-11-27T03:37:46.693Z,-2.07
2023-11-27T03:40:13.920Z,-2.05
2023-11-27T03:42:42.460Z,-2.08
2023-11-27T03:45:10.655Z,-2.14
2023-11-27T03:47:37.624Z,-2.22
2023-11-27T03:50:04.904Z,-2.19
2023-11-27T03:52:32.220Z,-2.22
2023-11-27T03:54:59.171Z,-2.18
2023-11-27T03:57:26.221Z,-2.16
2023-11-27T03:59:53.123Z,-2.17
2023-11-27T04:02:20.065Z,-2.25
2023-11-27T04:04:48.103Z,-2.14
2023-11-27T04:07:15.061Z,-2.12
2023-11-27T04:09:42.084Z,-2.08
2023-11-27T04:12:09.099Z,-2.09
2023-11-27T04:14:35.936Z,-2.09
2023-11-27T04:17:05.413Z,-2.04
2023-11-27T04:19:32.387Z,-2.01
2023-11-27T04:21:59.372Z,-1.98
2023-11-27T04:24:26.501Z,-1.97
2023-11-27T04:26:53.304Z,-1.98
2023-11-27T04:29:20.233Z,-1.95
2023-11-27T04:31:47.245Z,-2.07
2023-11-27T04:34:17.438Z,-2.12
2023-11-27T04:36:44.951Z,-2.07
2023-11-27T04:39:12.436Z,-2.06
2023-11-27T04:41:43.823Z,-1.95
2023-11-27T04:44:11.440Z,-1.94
2023-11-27T04:46:41.573Z,-1.91
2023-11-27T04:49:11.419Z,-1.88
2023-11-27T04:51:41.501Z,-1.85
2023-11-27T04:54:08.702Z,-1.87
2023-11-27T04:56:35.859Z,-1.86
2023-11-27T04:59:02.783Z,-1.85
2023-11-27T05:01:29.794Z,-1.83
2023-11-27T05:03:57.241Z,-1.81
2023-11-27T05:06:24.178Z,-1.78
2023-11-27T05:08:51.073Z,-1.79
2023-11-27T05:11:21.191Z,-1.81
2023-11-27T05:13:49.267Z,-1.81
2023-11-27T05:16:23.454Z,-1.78
2023-11-27T05:18:50.623Z,-1.73
2023-11-27T05:21:17.777Z,-1.72
2023-11-27T05:23:44.677Z,-1.70
2023-11-27T05:26:12.838Z,-1.70
2023-11-27T05:28:39.900Z,-1.69
2023-11-27T05:31:07.471Z,-1.70
2023-11-27T05:33:35.220Z,-1.71
2023-11-27T05:36:03.638Z,-1.70
2023-11-27T05:38:30.692Z,-1.74
2023-11-27T05:40:58.203Z,-1.74
2023-11-27T05:43:25.366Z,-1.70
2023-11-27T05:45:52.587Z,-1.68
2023-11-27T05:48:23.584Z,-1.70
2023-11-27T05:50:50.683Z,-1.72
2023-11-27T05:53:17.768Z,-1.70
2023-11-27T05:55:44.834Z,-1.75
2023-11-27T05:58:12.287Z,-1.72
2023-11-27T06:00:43.082Z,-1.61
2023-11-27T06:03:10.283Z,-1.57
2023-11-27T06:05:40.165Z,-1.68
2023-11-27T06:08:07.173Z,-1.66
2023-11-27T06:10:34.200Z,-1.63
2023-11-27T06:13:01.152Z,-1.62
2023-11-27T06:15:28.106Z,-1.62
2023-11-27T06:17:57.255Z,-1.57
2023-11-27T06:20:24.076Z,-1.56
2023-11-27T06:22:54.689Z,-1.48
2023-11-27T06:25:23.054Z,-1.49
2023-11-27T06:27:50.272Z,-1.41
2023-11-27T06:30:17.133Z,-1.35
2023-11-27T06:32:44.104Z,-1.38
2023-11-27T06:35:13.790Z,-1.44
2023-11-27T06:37:40.849Z,-1.40
2023-11-27T06:40:08.809Z,-1.44
2023-11-27T06:42:35.744Z,-1.43
2023-11-27T06:45:05.312Z,-1.30
2023-11-27T06:47:33.021Z,-1.35
2023-11-27T06:49:59.839Z,-1.35
2023-11-27T06:52:27.149Z,-1.41
2023-11-27T06:54:54.721Z,-1.40
2023-11-27T06:57:21.877Z,-1.42
2023-11-27T06:59:48.742Z,-1.45
2023-11-27T07:02:19.605Z,-1.46
2023-11-27T07:04:48.549Z,-1.43
2023-11-27T07:07:15.518Z,-1.44
2023-11-27T07:09:42.417Z,-1.46
2023-11-27T07:12:09.771Z,-1.43
2023-11-27T07:14:36.722Z,-1.49
2023-11-27T07:17:04.963Z,-1.45
2023-11-27T07:19:32.279Z,-1.46
2023-11-27T07:21:59.439Z,-1.44
2023-11-27T07:24:26.390Z,-1.44
2023-11-27T07:26:58.531Z,-1.45
2023-11-27T07:29:25.628Z,-1.47
2023-11-27T07:31:52.698Z,-1.50
2023-11-27T07:34:19.741Z,-1.49
2023-11-27T07:36:46.602Z,-1.46
2023-11-27T07:39:13.612Z,-1.48
2023-11-27T07:41:40.428Z,-1.44
2023-11-27T07:44:13.972Z,-1.48
2023-11-27T07:46:41.073Z,-1.47
2023-11-27T07:49:08.177Z,-1.48
2023-11-27T07:51:37.843Z,-1.48
2023-11-27T07:54:05.160Z,-1.49
2023-11-27T07:56:34.241Z,-1.45
2023-11-27T07:59:01.698Z,-1.46
2023-11-27T08:01:28.719Z,-1.42
2023-11-27T08:03:55.710Z,-1.44
2023-11-27T08:06:22.631Z,-1.39
2023-11-27T08:08:49.498Z,-1.33
2023-11-27T08:11:16.633Z,-1.32
2023-11-27T08:13:46.965Z,-1.30
2023-11-27T08:16:13.903Z,-1.26
2023-11-27T08:18:43.197Z,-1.27
2023-11-27T08:21:12.115Z,-1.27
2023-11-27T08:23:39.245Z,-1.25
2023-11-27T08:26:06.804Z,-1.26
2023-11-27T08:28:34.306Z,-1.20
2023-11-27T08:31:01.314Z,-1.18
2023-11-27T08:33:30.543Z,-1.13
2023-11-27T08:35:59.282Z,-1.10
2023-11-27T08:38:26.587Z,-1.11
2023-11-27T08:40:53.990Z,-1.05
2023-11-27T08:43:20.898Z,-1.00
2023-11-27T08:45:50.028Z,-0.97
2023-11-27T08:48:17.483Z,-0.93
2023-11-27T08:50:44.392Z,-0.88
2023-11-27T08:53:11.830Z,-0.82
2023-11-27T08:55:38.782Z,-0.79
2023-11-27T08:58:06.250Z,-0.79
2023-11-27T09:00:34.001Z,-0.76
2023-11-27T09:03:03.530Z,-0.74
2023-11-27T09:05:33.039Z,-0.73
2023-11-27T09:08:04.725Z,-0.68
2023-11-27T09:10:32.817Z,-0.67
2023-11-27T09:13:02.166Z,-0.60
2023-11-27T09:15:29.438Z,-0.58
2023-11-27T09:17:57.246Z,-0.53
2023-11-27T09:20:24.397Z,-0.52
2023-11-27T09:22:54.344Z,-0.51
2023-11-27T09:25:21.415Z,-0.47
2023-11-27T09:27:48.309Z,-0.46
2023-11-27T09:30:16.222Z,-0.47
2023-11-27T09:32:43.116Z,-0.42
2023-11-27T09:35:12.008Z,-0.36
2023-11-27T09:37:40.476Z,-0.37
2023-11-27T09:40:10.134Z,-0.36
2023-11-27T09:42:47.108Z,-0.38
2023-11-27T09:45:21.245Z,-0.31
2023-11-27T09:47:52.605Z,-0.30
2023-11-27T09:50:25.843Z,-0.24
2023-11-27T09:53:01.369Z,-0.21
2023-11-27T09:55:33.134Z,-0.17
2023-11-27T09:58:01.175Z,-0.13
2023-11-27T10:00:29.295Z,-0.05
2023-11-27T10:03:00.615Z,0.01
2023-11-27T10:05:27.670Z,0.14
2023-11-27T10:07:55.554Z,0.21
2023-11-27T10:10:28.009Z,0.28
2023-11-27T10:13:03.339Z,0.33
2023-11-27T10:15:36.367Z,0.39
2023-11-27T10:18:10.207Z,0.44
2023-11-27T10:20:41.984Z,0.51
2023-11-27T10:23:14.095Z,0.55
2023-11-27T10:25:41.242Z,0.63
2023-11-27T10:28:08.158Z,0.63
2023-11-27T10:30:35.057Z,0.63
2023-11-27T10:33:07.398Z,0.70
2023-11-27T10:35:35.145Z,0.65
2023-11-27T10:38:02.156Z,0.63
2023-11-27T10:40:29.200Z,0.67
2023-11-27T10:43:02.129Z,0.72
2023-11-27T10:45:30.325Z,0.80
2023-11-27T10:47:58.256Z,0.74
2023-11-27T10:50:29.557Z,0.79
2023-11-27T10:52:58.217Z,0.89
2023-11-27T10:55:29.555Z,0.87
2023-11-27T10:58:00.713Z,0.93
2023-11-27T11:00:31.715Z,0.96
2023-11-27T11:03:04.743Z,1.03
2023-11-27T11:05:47.051Z,0.97
2023-11-27T11:08:14.719Z,1.00
2023-11-27T11:10:42.250Z,0.94
2023-11-27T11:13:17.404Z,0.88
2023-11-27T11:15:58.204Z,0.88
2023-11-27T11:18:45.395Z,0.78
2023-11-27T11:21:25.811Z,0.70
2023-11-27T11:24:10.674Z,0.81
2023-11-27T11:27:09.014Z,0.85
2023-11-27T11:29:37.670Z,0.77
2023-11-27T11:32:10.049Z,0.88
2023-11-27T11:34:42.986Z,0.87
2023-11-27T11:37:17.562Z,0.85
2023-11-27T11:39:47.457Z,0.81
2023-11-27T11:46:20.936Z,0.95
2023-11-27T11:52:10.824Z,0.91
2023-11-27T11:52:25.511Z,0.99
2023-11-27T11:54:56.258Z,1.04
2023-11-27T11:57:23.570Z,1.02
2023-11-27T11:59:52.029Z,1.08
2023-11-27T12:02:24.358Z,1.12
2023-11-27T12:04:55.596Z,1.07
2023-11-27T12:07:26.053Z,1.10
2023-11-27T12:09:53.054Z,1.07
2023-11-27T12:12:21.391Z,1.07
2023-11-27T12:14:48.552Z,1.11
2023-11-27T12:17:22.404Z,1.06
2023-11-27T12:19:49.557Z,1.06
2023-11-27T12:22:20.803Z,1.07
2023-11-27T12:24:48.387Z,0.97
2023-11-27T12:27:15.351Z,0.90
2023-11-27T12:29:49.769Z,0.97
2023-11-27T12:32:17.694Z,0.87
2023-11-27T12:34:44.760Z,0.81
2023-11-27T12:37:11.633Z,0.90
2023-11-27T12:39:41.148Z,0.98
2023-11-27T12:42:16.116Z,0.78
2023-11-27T12:44:48.391Z,0.82
2023-11-27T12:47:20.716Z,1.20
2023-11-27T12:49:53.755Z,0.93
2023-11-27T12:52:20.938Z,0.96
2023-11-27T12:54:55.598Z,0.92
2023-11-27T12:57:23.692Z,0.94
2023-11-27T12:59:53.980Z,0.85
2023-11-27T13:02:27.172Z,0.81
2023-11-27T13:04:58.173Z,0.82
2023-11-27T13:07:27.009Z,0.83
2023-11-27T13:09:56.952Z,0.87
2023-11-27T13:12:27.788Z,0.84
2023-11-27T13:14:54.907Z,0.82
2023-11-27T13:17:22.662Z,0.81
2023-11-27T13:19:52.213Z,0.82
2023-11-27T13:22:19.311Z,0.72
2023-11-27T13:24:51.854Z,0.78
2023-11-27T13:27:22.827Z,0.75
2023-11-27T13:29:53.677Z,0.66
2023-11-27T13:32:21.611Z,0.69
2023-11-27T13:34:58.450Z,0.59
2023-11-27T13:37:30.709Z,0.50
2023-11-27T13:40:02.656Z,0.62
2023-11-27T13:42:32.507Z,0.64
2023-11-27T13:45:00.524Z,0.55
2023-11-27T13:47:29.846Z,0.58
2023-11-27T13:49:56.997Z,0.54
2023-11-27T13:52:31.105Z,0.48
2023-11-27T13:54:59.248Z,0.54
2023-11-27T13:57:30.138Z,0.42
2023-11-27T14:00:21.601Z,0.35
2023-11-27T14:02:52.883Z,0.37
2023-11-27T14:05:23.275Z,0.34
2023-11-27T14:07:52.357Z,0.27
2023-11-27T14:10:34.367Z,0.18
2023-11-27T14:13:02.909Z,0.30
2023-11-27T14:15:40.810Z,0.27
2023-11-27T14:18:24.052Z,0.32
2023-11-27T14:21:14.160Z,0.24
2023-11-27T14:23:41.077Z,0.10
2023-11-27T14:26:11.612Z,0.17
2023-11-27T14:28:45.188Z,0.07
2023-11-27T14:31:12.519Z,0.08
2023-11-27T14:33:41.302Z,0.14
2023-11-27T14:36:12.955Z,0.09
2023-11-27T14:38:41.088Z,0.06
2023-11-27T14:41:09.827Z,-0.07
2023-11-27T14:43:37.060Z,-0.10
2023-11-27T14:46:05.292Z,-0.13
2023-11-27T14:48:34.094Z,-0.05
2023-11-27T14:51:01.848Z,-0.08
2023-11-27T14:53:28.854Z,0.01
2023-11-27T14:55:55.848Z,-0.10
2023-11-27T14:58:23.785Z,-0.19
2023-11-27T15:00:53.259Z,-0.16
2023-11-27T15:03:27.286Z,-0.09
2023-11-27T15:05:54.801Z,-0.19
2023-11-27T15:08:22.273Z,-0.18
2023-11-27T15:10:52.797Z,-0.09
2023-11-27T15:13:21.725Z,-0.22
2023-11-27T15:15:56.138Z,-0.11
2023-11-27T15:18:23.107Z,-0.23
2023-11-27T15:20:50.250Z,-0.19
2023-11-27T15:23:19.868Z,-0.19
2023-11-27T15:25:47.018Z,-0.19
2023-11-27T15:28:14.936Z,-0.24
2023-11-27T15:30:41.821Z,-0.12
2023-11-27T15:33:09.521Z,-0.15
2023-11-27T15:35:40.036Z,-0.16
2023-11-27T15:38:06.967Z,-0.19
2023-11-27T15:40:35.941Z,-0.13
2023-11-27T15:43:03.324Z,-0.18
2023-11-27T15:45:32.472Z,-0.15
2023-11-27T15:48:00.519Z,-0.12
2023-11-27T15:50:32.279Z,-0.14
2023-11-27T15:53:02.190Z,-0.17
2023-11-27T15:55:30.856Z,-0.19
2023-11-27T15:57:58.003Z,-0.18
2023-11-27T16:00:27.015Z,-0.03
2023-11-27T16:02:56.644Z,-0.14
2023-11-27T16:05:24.468Z,-0.10
2023-11-27T16:07:51.462Z,-0.11
2023-11-27T16:10:22.888Z,-0.09
2023-11-27T16:12:53.224Z,-0.12
2023-11-27T16:15:21.682Z,-0.19
2023-11-27T16:17:59.912Z,-0.24
2023-11-27T16:20:31.823Z,-0.31
2023-11-27T16:22:58.615Z,-0.23
2023-11-27T16:25:25.821Z,-0.19
2023-11-27T16:27:52.984Z,-0.18
2023-11-27T16:30:23.076Z,-0.26
2023-11-27T16:32:51.559Z,-0.37
2023-11-27T16:35:25.101Z,-0.37
2023-11-27T16:37:52.932Z,-0.32
2023-11-27T16:40:21.715Z,-0.36
2023-11-27T16:42:53.630Z,-0.40
2023-11-27T16:45:24.700Z,-0.43
2023-11-27T16:47:54.305Z,-0.42
2023-11-27T16:50:22.947Z,-0.26
2023-11-27T16:52:50.161Z,-0.40
2023-11-27T16:55:21.439Z,-0.44
2023-11-27T16:57:50.804Z,-0.48
2023-11-27T17:00:25.411Z,-0.40
2023-11-27T17:02:56.985Z,-0.29
2023-11-27T17:05:25.486Z,-0.19
2023-11-27T17:07:52.342Z,-0.39
2023-11-27T17:10:22.785Z,-0.31
2023-11-27T17:12:50.916Z,-0.42
2023-11-27T17:15:18.106Z,-0.42
2023-11-27T17:17:47.590Z,-0.24
2023-11-27T17:20:16.585Z,-0.28
2023-11-27T17:25:21.845Z,-0.30
2023-11-27T17:27:48.934Z,-0.32
2023-11-27T17:30:16.417Z,-0.35
2023-11-27T17:32:43.666Z,-0.36
2023-11-27T17:35:14.550Z,-0.40
2023-11-27T17:37:42.410Z,-0.30
2023-11-27T17:40:16.151Z,-0.31
2023-11-27T17:42:48.126Z,-0.36
2023-11-27T17:45:15.259Z,-0.30
2023-11-27T17:47:42.920Z,-0.23
2023-11-27T17:50:14.924Z,-0.38
2023-11-27T17:52:43.045Z,-0.40
2023-11-27T17:55:15.190Z,-0.40
2023-11-27T17:57:46.538Z,-0.31
2023-11-27T18:00:20.636Z,-0.41
2023-11-27T18:02:52.225Z,-0.43
2023-11-27T18:05:26.032Z,-0.38
2023-11-27T18:07:58.183Z,-0.44
2023-11-27T18:10:25.729Z,-0.39
2023-11-27T18:12:54.530Z,-0.20
2023-11-27T18:15:22.999Z,-0.20
2023-11-27T18:17:51.818Z,-0.31
2023-11-27T18:20:20.029Z,-0.31
2023-11-27T18:22:49.490Z,-0.42
2023-11-27T18:25:20.783Z,-0.32
2023-11-27T18:27:49.258Z,-0.34
2023-11-27T18:30:18.272Z,-0.31
2023-11-27T18:32:45.916Z,-0.30
2023-11-27T18:35:13.577Z,-0.27
2023-11-27T18:37:49.334Z,-0.37
2023-11-27T18:40:19.809Z,-0.44
2023-11-27T18:42:51.985Z,-0.38
2023-11-27T18:45:25.370Z,-0.29
2023-11-27T18:47:52.472Z,-0.36
2023-11-27T18:50:19.404Z,-0.37
2023-11-27T18:52:46.448Z,-0.34
2023-11-27T18:55:13.873Z,-0.37
2023-11-27T18:57:42.395Z,-0.39
2023-11-27T19:00:15.474Z,-0.41
2023-11-27T19:02:42.829Z,-0.33
2023-11-27T19:05:11.024Z,-0.50
2023-11-27T19:07:37.928Z,-0.40
2023-11-27T19:10:10.421Z,-0.34
2023-11-27T19:12:37.346Z,-0.36
2023-11-27T19:15:04.894Z,-0.51
2023-11-27T19:17:32.954Z,-0.55
2023-11-27T19:19:59.977Z,-0.45
2023-11-27T19:22:26.982Z,-0.45
2023-11-27T19:24:55.343Z,-0.43
2023-11-27T19:27:24.838Z,-0.39
2023-11-27T19:29:51.888Z,-0.31
2023-11-27T19:32:19.138Z,-0.49
2023-11-27T19:34:46.075Z,-0.49
2023-11-27T19:37:12.965Z,-0.53
2023-11-27T19:39:39.877Z,-0.57
2023-11-27T19:42:06.859Z,-0.49
2023-11-27T19:44:34.779Z,-0.46
2023-11-27T19:47:01.751Z,-0.54
2023-11-27T19:49:28.981Z,-0.56
2023-11-27T19:52:00.662Z,-0.59
2023-11-27T19:54:33.024Z,-0.54
2023-11-27T19:57:03.318Z,-0.56
2023-11-27T19:59:30.634Z,-0.57
2023-11-27T20:01:57.595Z,-0.57
2023-11-27T20:04:25.092Z,-0.60
2023-11-27T20:06:52.153Z,-0.71
2023-11-27T20:09:19.352Z,-0.72
2023-11-27T20:11:46.256Z,-0.52
2023-11-27T20:14:13.389Z,-0.62
2023-11-27T20:16:40.794Z,-0.65
2023-11-27T20:19:10.910Z,-0.80
2023-11-27T20:21:40.777Z,-0.79
2023-11-27T20:24:08.085Z,-0.85
2023-11-27T20:26:36.792Z,-0.90
2023-11-27T20:29:06.637Z,-0.72
2023-11-27T20:31:38.596Z,-0.84
2023-11-27T20:34:10.095Z,-0.95
2023-11-27T20:36:40.365Z,-0.93
2023-11-27T20:39:12.663Z,-1.03
2023-11-27T20:41:44.702Z,-0.98
2023-11-27T20:44:11.813Z,-1.03
2023-11-27T20:46:39.515Z,-0.87
2023-11-27T20:49:07.143Z,-0.89
2023-11-27T20:51:34.044Z,-0.99
2023-11-27T20:54:02.040Z,-0.99
2023-11-27T20:56:30.828Z,-1.02
2023-11-27T20:58:59.916Z,-1.02
2023-11-27T21:01:29.127Z,-1.03
2023-11-27T21:04:08.133Z,-1.03
2023-11-27T21:06:41.525Z,-0.93
2023-11-27T21:09:10.354Z,-0.91
2023-11-27T21:11:37.928Z,-0.90
2023-11-27T21:14:04.916Z,-0.96
2023-11-27T21:16:36.235Z,-0.94
2023-11-27T21:19:04.415Z,-0.92
2023-11-27T21:21:33.037Z,-0.86
2023-11-27T21:24:00.225Z,-0.95
2023-11-27T21:26:28.691Z,-0.87
2023-11-27T21:28:56.249Z,-0.71
2023-11-27T21:31:23.633Z,-0.92
2023-11-27T21:33:50.699Z,-0.79
2023-11-27T21:36:18.196Z,-0.85
2023-11-27T21:38:45.816Z,-0.84
2023-11-27T21:41:17.265Z,-0.88
2023-11-27T21:43:44.205Z,-0.76
2023-11-27T21:46:11.961Z,-0.80
2023-11-27T21:48:42.226Z,-0.74
2023-11-27T21:51:09.194Z,-0.81
2023-11-27T21:53:36.147Z,-0.74
2023-11-27T21:56:03.246Z,-0.78
2023-11-27T21:58:35.632Z,-0.87
2023-11-27T22:01:11.855Z,-0.91
2023-11-27T22:03:44.333Z,-0.86
2023-11-27T22:06:11.729Z,-0.83
2023-11-27T22:08:40.399Z,-0.91
2023-11-27T22:11:07.763Z,-0.84
2023-11-27T22:13:35.290Z,-1.01
2023-11-27T22:16:02.323Z,-0.90
2023-11-27T22:18:29.653Z,-0.92
2023-11-27T22:20:59.733Z,-0.97
2023-11-27T22:23:26.885Z,-0.95
2023-11-27T22:25:54.053Z,-0.96
2023-11-27T22:28:21.002Z,-0.95
2023-11-27T22:30:48.032Z,-0.95
2023-11-27T22:33:15.037Z,-0.89
2023-11-27T22:35:42.956Z,-0.88
2023-11-27T22:38:10.194Z,-0.91
2023-11-27T22:40:37.199Z,-0.84
2023-11-27T22:43:04.246Z,-0.99
2023-11-27T22:45:31.298Z,-0.88
2023-11-27T22:47:58.305Z,-0.93
2023-11-27T22:50:25.201Z,-1.09
2023-11-27T22:52:52.221Z,-1.08
2023-11-27T22:55:19.412Z,-1.06
2023-11-27T22:57:49.123Z,-1.08
2023-11-27T23:00:22.701Z,-0.92
2023-11-27T23:02:50.524Z,-1.04
2023-11-27T23:05:19.232Z,-1.11
2023-11-27T23:07:46.358Z,-1.04
2023-11-27T23:10:14.107Z,-0.99
2023-11-27T23:12:43.901Z,-1.04
2023-11-27T23:15:13.519Z,-1.10
2023-11-27T23:17:41.453Z,-1.18
2023-11-27T23:20:12.373Z,-1.21
2023-11-27T23:22:39.471Z,-1.15
2023-11-27T23:25:07.582Z,-1.22
2023-11-27T23:27:34.560Z,-1.14
2023-11-27T23:30:01.819Z,-1.10
2023-11-27T23:32:30.898Z,-1.13
2023-11-27T23:34:57.935Z,-1.18
2023-11-27T23:37:24.832Z,-1.22
2023-11-27T23:39:51.687Z,-1.31
2023-11-27T23:42:19.245Z,-1.30
2023-11-27T23:44:46.764Z,-1.35
2023-11-27T23:47:13.741Z,-1.20
2023-11-27T23:49:41.058Z,-1.15
2023-11-27T23:52:08.979Z,-1.02
2023-11-27T23:54:36.140Z,-1.10
2023-11-27T23:57:03.196Z,-1.01
2023-11-27T23:59:30.064Z,-0.88
